ADDS METAR Data INFO
IDs: Format: Raw Decoded Include TAF

Data at: 0213 UTC 18 Jan 2018

KSPG 180153Z AUTO 35016G20KT 10SM CLR 08/01 A3031 RMK AO2 SLP262 T00830011
KSPG 180053Z 36011KT 10SM CLR 09/04 A3030 RMK AO2 SLP259 T00890039
KSPG 172353Z 35011KT 10SM CLR 09/05 A3029 RMK AO2 SLP255 T00940050 10172 20094 51012
KSPG 172303Z 35014G21KT 10SM SCT017 SCT039 OVC048 10/06 A3028 RMK AO2 T01000061
KSPG 172253Z 35016G20KT 10SM BKN017 OVC040 10/07 A3028 RMK AO2 SLP252 T01000067
KSPG 172202Z 34013G24KT 10SM BKN016 OVC034 11/07 A3027 RMK AO2 T01060072
KSPG 172153Z 36015G24KT 10SM OVC014 11/07 A3027 RMK AO2 PK WND 34026/2058 SLP248 T01060072
KSPG 172138Z 35017G23KT 10SM OVC013 11/08 A3025 RMK AO2 PK WND 34026/2058 T01060078
KSPG 172112Z 34018G25KT 10SM BKN017 OVC031 11/07 A3026 RMK AO2 PK WND 34026/2058 T01060072
KSPG 172101Z 35018G26KT 10SM SCT019 OVC031 11/07 A3025 RMK AO2 PK WND 34026/2058 T01110067
KSPG 172053Z 34016G23KT 10SM FEW019 BKN029 11/07 A3025 RMK AO2 SLP244 T01110072 53005
KSPG 172016Z 36013G22KT 10SM SCT015 BKN021 OVC070 12/08 A3024 RMK AO2 T01220083
KSPG 171953Z 35013G21KT 9SM OVC013 12/08 A3024 RMK AO2 SLP239 T01170083
KSPG 171937Z 35015G22KT 9SM BKN014 12/09 A3024 RMK AO2 T01170089
KSPG 171853Z 35017G25KT 10SM FEW014 BKN046 13/09 A3024 RMK AO2 SLP238 T01280089
KSPG 171753Z 33011KT 10SM CLR 17/09 A3024 RMK AO2 SLP239 T01720094 10183 20111 58013
KSPG 171653Z 13005KT 10SM CLR 16/11 A3026 RMK AO2 SLP247 T01560111
KSPG 171553Z 00000KT 10SM CLR 16/11 A3028 RMK AO2 SLP253 T01560111
KSPG 171453Z 09003KT 10SM CLR 14/11 A3028 RMK AO2 SLP252 T01390111 52009
KSPG 171353Z 03004KT 10SM CLR 13/11 A3027 RMK AO2 SLP249 T01330111
KSPG 171253Z 36005KT 7SM CLR 12/11 A3026 RMK AO2 SLP246 T01170106
KSPG 171153Z 36006KT 8SM CLR 12/11 A3025 RMK AO2 SLP243 T01170106 10139 20111 53009
KSPG 171053Z AUTO 36005KT 10SM CLR 11/11 A3023 RMK AO2 SLP237 T01110106
KSPG 170953Z AUTO 01006KT 10SM CLR 12/10 A3023 RMK AO2 SLP236 T01170100
KSPG 170853Z AUTO 35006KT 10SM CLR 13/11 A3022 RMK AO2 SLP234 T01280111 56008
KSPG 170753Z AUTO 03003KT 10SM CLR 13/11 A3022 RMK AO2 SLP234 T01280111
KSPG 170653Z AUTO 00000KT 10SM CLR 14/12 A3023 RMK AO2 SLP237 T01390117
KSPG 170553Z AUTO 00000KT 10SM CLR 14/11 A3025 RMK AO2 SLP242 T01390111 10172 20139 58009
KSPG 170453Z AUTO 00000KT 10SM CLR 14/11 A3027 RMK AO2 SLP248 T01440111 402170100
KSPG 170353Z AUTO 07006KT 10SM CLR 15/12 A3028 RMK AO2 SLP254 T01500117
KSPG 170253Z AUTO 02005KT 10SM CLR 15/11 A3028 RMK AO2 SLP252 T01500106 53004
KSPG 170153Z AUTO 02005KT 10SM CLR 16/11 A3027 RMK AO2 SLP251 T01560106
KSPG 170053Z 03006KT 10SM CLR 16/10 A3026 RMK AO2 SLP247 T01610100
KSPG 162353Z 35006KT 10SM CLR 17/09 A3026 RMK AO2 SLP248 T01720094 10217 20172 53002
KSPG 162253Z 34007KT 10SM CLR 18/09 A3025 RMK AO2 SLP244 T01830089
KSPG 162153Z 03005KT 10SM CLR 20/08 A3026 RMK AO2 SLP245 T02000083
KSPG 162053Z 14003KT 10SM CLR 21/08 A3026 RMK AO2 SLP246 T02060078 56020
KSPG 161953Z 00000KT 10SM CLR 21/09 A3027 RMK AO2 SLP248 T02060089
KSPG 161853Z 06005KT 10SM CLR 19/12 A3028 RMK AO2 SLP253 T01890117
KSPG 161753Z 06006KT 10SM FEW060 18/11 A3032 RMK AO2 SLP266 T01830106 10189 20111 58020
KSPG 161653Z 06003KT 10SM CLR 17/11 A3035 RMK AO2 SLP276 T01670111
KSPG 161553Z 07007KT 10SM CLR 15/10 A3037 RMK AO2 SLP284 T01500100
KSPG 161453Z 07006KT 10SM CLR 13/09 A3038 RMK AO2 SLP285 T01330094 53013